createdAt,value
2022-08-23T00:00:32.026Z,0.00
2022-08-23T00:01:32.024Z,0.00
2022-08-23T00:02:32.058Z,0.00
2022-08-23T00:03:32.033Z,0.00
2022-08-23T00:04:35.256Z,0.00
2022-08-23T00:05:32.020Z,0.00
2022-08-23T00:06:32.011Z,0.00
2022-08-23T00:07:36.362Z,0.00
2022-08-23T00:08:32.007Z,0.00
2022-08-23T00:09:32.005Z,0.00
2022-08-23T00:10:32.012Z,0.00
2022-08-23T00:11:32.006Z,0.00
2022-08-23T00:12:31.999Z,0.00
2022-08-23T00:13:47.479Z,0.00
2022-08-23T00:14:31.991Z,0.00
2022-08-23T00:15:31.989Z,0.00
2022-08-23T00:16:31.987Z,0.00
2022-08-23T00:17:34.345Z,0.00
2022-08-23T00:18:31.979Z,0.00
2022-08-23T00:19:31.976Z,0.00
2022-08-23T00:20:31.973Z,0.00
2022-08-23T00:21:31.967Z,0.00
2022-08-23T00:22:31.965Z,0.00
2022-08-23T00:23:31.965Z,0.00
2022-08-23T00:24:31.964Z,0.00
2022-08-23T00:25:31.962Z,0.00
2022-08-23T00:26:31.962Z,0.00
2022-08-23T00:27:31.957Z,0.00
2022-08-23T00:28:31.951Z,0.00
2022-08-23T00:29:31.986Z,0.00
2022-08-23T00:30:31.949Z,0.00
2022-08-23T00:31:31.994Z,0.00
2022-08-23T00:32:31.944Z,0.00
2022-08-23T00:33:31.938Z,0.00
2022-08-23T00:34:31.938Z,0.00
2022-08-23T00:35:31.934Z,0.00
2022-08-23T00:36:31.934Z,0.00
2022-08-23T00:37:31.933Z,0.00
2022-08-23T00:38:34.965Z,0.00
2022-08-23T00:39:31.947Z,0.00
2022-08-23T00:40:31.921Z,0.00
2022-08-23T00:41:31.919Z,0.00
2022-08-23T00:42:31.911Z,0.00
2022-08-23T00:43:31.921Z,0.00
2022-08-23T00:44:31.910Z,0.00
2022-08-23T00:45:31.911Z,0.00
2022-08-23T00:46:31.903Z,0.00
2022-08-23T00:47:31.899Z,0.00
2022-08-23T00:48:31.899Z,0.00
2022-08-23T00:49:31.896Z,0.00
2022-08-23T00:50:31.939Z,0.00
2022-08-23T00:51:31.890Z,0.00
2022-08-23T00:52:31.894Z,0.00
2022-08-23T00:53:31.885Z,0.00
2022-08-23T00:54:31.881Z,0.00
2022-08-23T00:55:31.882Z,0.00
2022-08-23T00:56:31.875Z,0.00
2022-08-23T00:57:31.875Z,0.00
2022-08-23T00:58:31.885Z,0.00
2022-08-23T00:59:31.888Z,0.00
2022-08-23T01:00:31.892Z,0.00
2022-08-23T01:01:31.978Z,0.00
2022-08-23T01:02:31.915Z,0.00
2022-08-23T01:03:38.634Z,0.00
2022-08-23T01:04:31.852Z,0.00
2022-08-23T01:05:31.852Z,0.00
2022-08-23T01:06:31.847Z,0.00
2022-08-23T01:07:31.846Z,0.00
2022-08-23T01:08:31.848Z,0.00
2022-08-23T01:09:31.842Z,0.00
2022-08-23T01:10:31.852Z,0.00
2022-08-23T01:11:31.846Z,0.00
2022-08-23T01:12:32.825Z,0.00
2022-08-23T01:13:31.882Z,0.00
2022-08-23T01:14:31.845Z,0.00
2022-08-23T01:15:31.853Z,0.00
2022-08-23T01:16:31.845Z,0.00
2022-08-23T01:17:31.850Z,0.00
2022-08-23T01:18:31.849Z,0.00
2022-08-23T01:19:32.004Z,0.00
2022-08-23T01:20:31.849Z,0.00
2022-08-23T01:21:31.810Z,0.00
2022-08-23T01:22:31.804Z,0.00
2022-08-23T01:23:31.803Z,0.00
2022-08-23T01:24:43.977Z,0.00
2022-08-23T01:25:31.793Z,0.00
2022-08-23T01:26:31.792Z,0.00
2022-08-23T01:27:32.162Z,0.00
2022-08-23T01:28:31.787Z,0.00
2022-08-23T01:29:31.787Z,0.00
2022-08-23T01:30:31.782Z,0.00
2022-08-23T01:31:31.779Z,0.00
2022-08-23T01:32:31.777Z,0.00
2022-08-23T01:33:31.774Z,0.00
2022-08-23T01:34:34.635Z,0.00
2022-08-23T01:35:31.773Z,0.00
2022-08-23T01:36:31.768Z,0.00
2022-08-23T01:37:31.761Z,0.00
2022-08-23T01:38:32.869Z,0.00
2022-08-23T01:39:31.756Z,0.00
2022-08-23T01:40:31.756Z,0.00
2022-08-23T01:41:31.749Z,0.00
2022-08-23T01:42:31.777Z,0.00
2022-08-23T01:43:31.747Z,0.00
2022-08-23T01:44:31.741Z,0.00
2022-08-23T01:45:31.741Z,0.00
2022-08-23T01:46:31.736Z,0.00
2022-08-23T01:47:31.734Z,0.00
2022-08-23T01:48:31.731Z,0.00
2022-08-23T01:49:31.729Z,0.00
2022-08-23T01:50:31.791Z,0.00
2022-08-23T01:51:31.727Z,0.00
2022-08-23T01:52:31.719Z,0.00
2022-08-23T01:53:31.717Z,0.00
2022-08-23T01:54:31.713Z,0.00
2022-08-23T01:55:31.735Z,0.00
2022-08-23T01:56:38.723Z,0.00
2022-08-23T01:57:31.705Z,0.00
2022-08-23T01:58:31.702Z,0.00
2022-08-23T01:59:31.699Z,0.00
2022-08-23T02:00:31.699Z,0.00
2022-08-23T02:01:31.744Z,0.00
2022-08-23T02:02:31.701Z,0.00
2022-08-23T02:03:31.688Z,0.00
2022-08-23T02:04:31.688Z,0.00
2022-08-23T02:05:31.685Z,0.00
2022-08-23T02:06:31.679Z,0.00
2022-08-23T02:07:31.677Z,0.00
2022-08-23T02:08:31.678Z,0.00
2022-08-23T02:09:31.669Z,0.00
2022-08-23T02:10:31.670Z,0.00
2022-08-23T02:11:31.665Z,0.00
2022-08-23T02:12:31.664Z,0.00
2022-08-23T02:13:31.657Z,0.00
2022-08-23T02:14:31.655Z,0.00
2022-08-23T02:15:31.654Z,0.00
2022-08-23T02:16:31.654Z,0.00
2022-08-23T02:17:31.648Z,0.00
2022-08-23T02:18:31.645Z,0.00
2022-08-23T02:19:31.644Z,0.00
2022-08-23T02:20:31.640Z,0.00
2022-08-23T02:21:31.638Z,0.00
2022-08-23T02:22:31.636Z,0.00
2022-08-23T02:23:31.631Z,0.00
2022-08-23T02:24:31.853Z,0.00
2022-08-23T02:25:31.625Z,0.00
2022-08-23T02:26:31.623Z,0.00
2022-08-23T02:27:31.620Z,0.00
2022-08-23T02:28:31.615Z,0.00
2022-08-23T02:29:31.613Z,0.00
2022-08-23T02:30:31.611Z,0.00
2022-08-23T02:31:31.607Z,0.00
2022-08-23T02:32:31.603Z,0.00
2022-08-23T02:35:05.658Z,0.00
2022-08-23T02:36:03.243Z,0.00
2022-08-23T02:38:07.232Z,0.00
2022-08-23T02:39:07.217Z,0.00
2022-08-23T02:41:11.206Z,0.00
2022-08-23T02:42:11.754Z,0.00
2022-08-23T02:44:15.672Z,0.00
2022-08-23T02:45:15.661Z,0.00
2022-08-23T02:46:15.659Z,0.00
2022-08-23T02:47:22.829Z,0.00
2022-08-23T02:49:20.336Z,0.00
2022-08-23T02:50:20.106Z,0.00
2022-08-23T02:52:23.906Z,0.00
2022-08-23T02:53:23.887Z,0.00
2022-08-23T02:55:28.388Z,0.00
2022-08-23T02:56:28.375Z,0.00
2022-08-23T02:57:28.367Z,0.00
2022-08-23T02:58:28.374Z,0.00
2022-08-23T02:59:28.365Z,0.00
2022-08-23T03:00:28.374Z,0.00
2022-08-23T03:01:28.372Z,0.00
2022-08-23T03:02:28.390Z,0.00
2022-08-23T03:03:28.352Z,0.00
2022-08-23T03:04:28.349Z,0.00
2022-08-23T03:05:28.346Z,0.00
2022-08-23T03:06:28.346Z,0.00
2022-08-23T03:07:28.341Z,0.00
2022-08-23T03:08:28.336Z,0.00
2022-08-23T03:09:28.351Z,0.00
2022-08-23T03:10:28.347Z,0.00
2022-08-23T03:11:28.366Z,0.00
2022-08-23T03:12:28.352Z,0.00
2022-08-23T03:13:28.322Z,0.00
2022-08-23T03:14:28.319Z,0.00
2022-08-23T03:15:28.321Z,0.00
2022-08-23T03:16:28.312Z,0.00
2022-08-23T03:17:28.308Z,0.00
2022-08-23T03:18:28.307Z,0.00
2022-08-23T03:19:28.303Z,0.00
2022-08-23T03:20:28.344Z,0.00
2022-08-23T03:21:28.327Z,0.00
2022-08-23T03:22:28.313Z,0.00
2022-08-23T03:23:28.293Z,0.00
2022-08-23T03:24:28.294Z,0.00
2022-08-23T03:25:28.284Z,0.00
2022-08-23T03:26:28.282Z,0.00
2022-08-23T03:27:28.277Z,0.00
2022-08-23T03:28:28.275Z,0.00
2022-08-23T03:29:28.274Z,0.00
2022-08-23T03:30:28.266Z,0.00
2022-08-23T03:31:29.287Z,0.00
2022-08-23T03:32:28.264Z,0.00
2022-08-23T03:33:28.257Z,0.00
2022-08-23T03:34:28.252Z,0.00
2022-08-23T03:35:28.252Z,4.00
2022-08-23T03:36:28.489Z,4.00
2022-08-23T03:37:28.244Z,0.00
2022-08-23T03:38:28.243Z,4.00
2022-08-23T03:39:28.241Z,4.00
2022-08-23T03:40:28.234Z,8.00
2022-08-23T03:41:28.234Z,4.00
2022-08-23T03:42:28.572Z,8.00
2022-08-23T03:43:28.226Z,4.00
2022-08-23T03:44:28.224Z,8.00
2022-08-23T03:45:28.221Z,8.00
2022-08-23T03:46:30.969Z,8.00
2022-08-23T03:47:28.216Z,8.00
2022-08-23T03:48:28.212Z,12.00
2022-08-23T03:49:28.209Z,12.00
2022-08-23T03:50:28.221Z,12.00
2022-08-23T03:51:28.201Z,16.00
2022-08-23T03:52:28.198Z,16.00
2022-08-23T03:53:28.197Z,20.00
2022-08-23T03:54:28.194Z,24.00
2022-08-23T03:55:28.193Z,24.00
2022-08-23T03:56:28.189Z,32.00
2022-08-23T03:57:28.193Z,36.00
2022-08-23T03:58:28.181Z,40.00
2022-08-23T03:59:28.177Z,44.00
2022-08-23T04:00:28.174Z,52.00
2022-08-23T04:01:28.936Z,56.00
2022-08-23T04:02:28.169Z,64.00
2022-08-23T04:03:28.167Z,68.00
2022-08-23T04:04:28.164Z,76.00
2022-08-23T04:05:28.159Z,84.00
2022-08-23T04:06:28.156Z,92.00
2022-08-23T04:07:28.152Z,104.00
2022-08-23T04:08:33.339Z,108.00
2022-08-23T04:09:28.148Z,112.00
2022-08-23T04:10:28.144Z,124.00
2022-08-23T04:11:28.141Z,136.00
2022-08-23T04:12:28.142Z,152.00
2022-08-23T04:13:28.136Z,168.00
2022-08-23T04:14:28.133Z,180.00
2022-08-23T04:15:28.129Z,196.00
2022-08-23T04:16:28.126Z,212.00
2022-08-23T04:17:32.078Z,220.00
2022-08-23T04:18:28.121Z,228.00
2022-08-23T04:19:28.114Z,232.00
2022-08-23T04:20:28.114Z,236.00
2022-08-23T04:21:28.111Z,232.00
2022-08-23T04:22:28.106Z,232.00
2022-08-23T04:23:28.104Z,228.00
2022-08-23T04:24:28.099Z,236.00
2022-08-23T04:25:34.654Z,244.00
2022-08-23T04:26:30.283Z,256.00
2022-08-23T04:27:28.090Z,272.00
2022-08-23T04:28:28.090Z,288.00
2022-08-23T04:29:33.954Z,304.00
2022-08-23T04:30:28.079Z,320.00
2022-08-23T04:31:28.078Z,336.00
2022-08-23T04:32:28.420Z,356.00
2022-08-23T04:33:28.074Z,376.00
2022-08-23T04:34:28.705Z,396.00
2022-08-23T04:35:28.068Z,408.00
2022-08-23T04:36:28.062Z,428.00
2022-08-23T04:37:28.066Z,456.00
2022-08-23T04:38:28.058Z,484.00
2022-08-23T04:39:28.056Z,496.00
2022-08-23T04:40:28.073Z,512.00
2022-08-23T04:41:28.046Z,520.00
2022-08-23T04:42:28.043Z,528.00
2022-08-23T04:43:28.042Z,532.00
2022-08-23T04:44:28.038Z,532.00
2022-08-23T04:45:28.036Z,528.00
2022-08-23T04:46:28.038Z,536.00
2022-08-23T04:47:28.032Z,544.00
2022-08-23T04:48:28.025Z,552.00
2022-08-23T04:49:28.020Z,576.00
2022-08-23T04:50:28.021Z,600.00
2022-08-23T04:51:28.015Z,628.00
2022-08-23T04:52:28.013Z,660.00
2022-08-23T04:53:28.010Z,692.00
2022-08-23T04:54:28.007Z,724.00
2022-08-23T04:55:28.005Z,744.00
2022-08-23T04:56:28.000Z,752.00
2022-08-23T04:57:27.997Z,756.00
2022-08-23T04:58:27.996Z,768.00
2022-08-23T04:59:27.991Z,776.00
2022-08-23T05:00:28.224Z,788.00
2022-08-23T05:01:28.047Z,788.00
2022-08-23T05:02:27.982Z,776.00
2022-08-23T05:03:27.983Z,768.00
2022-08-23T05:04:27.986Z,756.00
2022-08-23T05:05:27.980Z,752.00
2022-08-23T05:06:27.971Z,744.00
2022-08-23T05:07:33.802Z,744.00
2022-08-23T05:08:27.965Z,744.00
2022-08-23T05:09:27.965Z,748.00
2022-08-23T05:10:27.955Z,756.00
2022-08-23T05:11:27.954Z,776.00
2022-08-23T05:12:27.951Z,808.00
2022-08-23T05:13:27.952Z,852.00
2022-08-23T05:14:27.947Z,916.00
2022-08-23T05:15:27.948Z,968.00
2022-08-23T05:16:27.940Z,1020.00
2022-08-23T05:17:27.935Z,1064.00
2022-08-23T05:18:27.934Z,1096.00
2022-08-23T05:19:27.935Z,1112.00
2022-08-23T05:20:27.929Z,1120.00
2022-08-23T05:21:27.926Z,1108.00
2022-08-23T05:22:27.919Z,1104.00
2022-08-23T05:23:31.811Z,1104.00
2022-08-23T05:24:27.919Z,1120.00
2022-08-23T05:25:27.911Z,1140.00
2022-08-23T05:26:27.911Z,1180.00
2022-08-23T05:27:27.910Z,1236.00
2022-08-23T05:28:27.902Z,1296.00
2022-08-23T05:29:27.904Z,1356.00
2022-08-23T05:30:27.898Z,1416.00
2022-08-23T05:31:27.895Z,1484.00
2022-08-23T05:32:32.819Z,1528.00
2022-08-23T05:33:27.889Z,1568.00
2022-08-23T05:34:27.885Z,1580.00
2022-08-23T05:35:27.881Z,1564.00
2022-08-23T05:36:27.881Z,1544.00
2022-08-23T05:37:27.878Z,1484.00
2022-08-23T05:38:27.872Z,1428.00
2022-08-23T05:39:36.111Z,1416.00
2022-08-23T05:40:27.866Z,1436.00
2022-08-23T05:41:37.834Z,1500.00
2022-08-23T05:42:27.861Z,1572.00
2022-08-23T05:43:27.860Z,1636.00
2022-08-23T05:44:27.856Z,1716.00
2022-08-23T05:45:27.854Z,1888.00
2022-08-23T05:46:28.352Z,2108.00
2022-08-23T05:47:27.847Z,2348.00
2022-08-23T05:48:27.845Z,2528.00
2022-08-23T05:49:27.842Z,2652.00
2022-08-23T05:50:27.838Z,2760.00
2022-08-23T05:51:27.835Z,2684.00
2022-08-23T05:52:27.835Z,2692.00
2022-08-23T05:53:27.831Z,2788.00
2022-08-23T05:54:27.827Z,3060.00
2022-08-23T05:55:35.054Z,3416.00
2022-08-23T05:56:27.819Z,3760.00
2022-08-23T05:57:27.821Z,4160.00
2022-08-23T05:58:27.814Z,4592.00
2022-08-23T05:59:27.813Z,4968.00
2022-08-23T06:00:38.126Z,5188.00
2022-08-23T06:01:27.853Z,5208.00
2022-08-23T06:02:27.803Z,5148.00
2022-08-23T06:03:27.802Z,5068.00
2022-08-23T06:04:27.801Z,5116.00
2022-08-23T06:05:27.795Z,5228.00
2022-08-23T06:06:37.121Z,5292.00
2022-08-23T06:07:27.792Z,6072.00
2022-08-23T06:08:27.788Z,6772.00
2022-08-23T06:09:27.783Z,5460.00
2022-08-23T06:10:27.819Z,5708.00
2022-08-23T06:11:27.783Z,5832.00
2022-08-23T06:12:27.774Z,6044.00
2022-08-23T06:13:27.776Z,6256.00
2022-08-23T06:14:27.829Z,6304.00
2022-08-23T06:15:27.768Z,6384.00
2022-08-23T06:16:27.769Z,6532.00
2022-08-23T06:17:27.766Z,6624.00
2022-08-23T06:18:27.762Z,6616.00
2022-08-23T06:19:27.760Z,6352.00
2022-08-23T06:20:27.846Z,6020.00
2022-08-23T06:21:27.756Z,6404.00
2022-08-23T06:22:27.754Z,6920.00
2022-08-23T06:23:27.752Z,5212.00
2022-08-23T06:24:27.752Z,4644.00
2022-08-23T06:25:27.748Z,4364.00
2022-08-23T06:26:27.746Z,4148.00
2022-08-23T06:27:27.743Z,4384.00
2022-08-23T06:28:27.770Z,4692.00
2022-08-23T06:29:27.782Z,5072.00
2022-08-23T06:30:27.889Z,4104.00
2022-08-23T06:31:27.759Z,3960.00
2022-08-23T06:32:27.787Z,3900.00
2022-08-23T06:33:27.775Z,3788.00
2022-08-23T06:34:27.730Z,4120.00
2022-08-23T06:35:37.954Z,3512.00
2022-08-23T06:36:27.725Z,3356.00
2022-08-23T06:37:27.722Z,3396.00
2022-08-23T06:38:27.718Z,3532.00
2022-08-23T06:39:27.717Z,3708.00
2022-08-23T06:40:27.746Z,3884.00
2022-08-23T06:41:27.712Z,4076.00
2022-08-23T06:42:38.410Z,4248.00
2022-08-23T06:43:27.727Z,4360.00
2022-08-23T06:44:27.707Z,4436.00
2022-08-23T06:45:33.725Z,4468.00
2022-08-23T06:46:28.269Z,4444.00
2022-08-23T06:47:27.700Z,4384.00
2022-08-23T06:48:27.704Z,4316.00
2022-08-23T06:49:27.708Z,4260.00
2022-08-23T06:50:32.082Z,4244.00
2022-08-23T06:51:27.693Z,4252.00
2022-08-23T06:52:27.762Z,4228.00
2022-08-23T06:53:27.691Z,4212.00
2022-08-23T06:54:27.689Z,4340.00
2022-08-23T06:55:27.685Z,4348.00
2022-08-23T06:56:27.681Z,4372.00
2022-08-23T06:57:27.680Z,4312.00
2022-08-23T06:58:27.678Z,4432.00
2022-08-23T06:59:27.684Z,4468.00
2022-08-23T07:00:27.789Z,4500.00
2022-08-23T07:01:45.334Z,4560.00
2022-08-23T07:02:27.704Z,4600.00
2022-08-23T07:03:27.670Z,4604.00
2022-08-23T07:04:27.666Z,4600.00
2022-08-23T07:05:27.670Z,4620.00
2022-08-23T07:06:27.663Z,4688.00
2022-08-23T07:07:37.532Z,4820.00
2022-08-23T07:08:27.659Z,4988.00
2022-08-23T07:09:27.661Z,5232.00
2022-08-23T07:10:27.653Z,5692.00
2022-08-23T07:11:27.653Z,5760.00
2022-08-23T07:12:27.654Z,5612.00
2022-08-23T07:13:27.652Z,5680.00
2022-08-23T07:14:27.648Z,5784.00
2022-08-23T07:15:27.646Z,5884.00
2022-08-23T07:16:27.736Z,5996.00
2022-08-23T07:17:27.647Z,6100.00
2022-08-23T07:18:27.639Z,6248.00
2022-08-23T07:19:29.047Z,6440.00
2022-08-23T07:20:27.637Z,6640.00
2022-08-23T07:21:27.636Z,6772.00
2022-08-23T07:22:27.635Z,6804.00
2022-08-23T07:23:27.632Z,6780.00
2022-08-23T07:24:32.342Z,6864.00
2022-08-23T07:25:27.632Z,7116.00
2022-08-23T07:26:27.627Z,7376.00
2022-08-23T07:27:27.626Z,7588.00
2022-08-23T07:28:27.625Z,7728.00
2022-08-23T07:29:27.629Z,7852.00
2022-08-23T07:30:27.631Z,7904.00
2022-08-23T07:31:27.647Z,7952.00
2022-08-23T07:32:27.620Z,8068.00
2022-08-23T07:33:27.620Z,8124.00
2022-08-23T07:34:27.612Z,8120.00
2022-08-23T07:35:27.605Z,8044.00
2022-08-23T07:36:27.982Z,7888.00
2022-08-23T07:37:27.607Z,7820.00
2022-08-23T07:38:28.966Z,7816.00
2022-08-23T07:39:27.601Z,7880.00
2022-08-23T07:40:27.821Z,8084.00
2022-08-23T07:41:27.601Z,8312.00
2022-08-23T07:42:27.600Z,8524.00
2022-08-23T07:43:27.600Z,8800.00
2022-08-23T07:44:27.605Z,9040.00
2022-08-23T07:45:27.593Z,9244.00
2022-08-23T07:46:27.606Z,9468.00
2022-08-23T07:47:27.591Z,9708.00
2022-08-23T07:48:52.576Z,9932.00
2022-08-23T07:49:29.356Z,10092.00
2022-08-23T07:50:30.374Z,10200.00
2022-08-23T07:51:27.586Z,10268.00
2022-08-23T07:52:27.590Z,10420.00
2022-08-23T07:53:37.818Z,10516.00
2022-08-23T07:54:27.581Z,10616.00
2022-08-23T07:55:27.578Z,10724.00
2022-08-23T07:56:27.578Z,10856.00
2022-08-23T07:57:27.578Z,10900.00
2022-08-23T07:58:27.574Z,10932.00
2022-08-23T07:59:30.419Z,11108.00
2022-08-23T08:00:27.575Z,11220.00
2022-08-23T08:01:27.601Z,11268.00
2022-08-23T08:02:27.609Z,11360.00
2022-08-23T08:03:27.569Z,11524.00
2022-08-23T08:04:27.568Z,11692.00
2022-08-23T08:05:27.570Z,11936.00
2022-08-23T08:06:27.567Z,11848.00
2022-08-23T08:07:27.598Z,11856.00
2022-08-23T08:08:27.566Z,11844.00
2022-08-23T08:09:27.564Z,11800.00
2022-08-23T08:10:27.560Z,11760.00
2022-08-23T08:11:32.161Z,11696.00
2022-08-23T08:12:27.562Z,11348.00
2022-08-23T08:13:27.563Z,11320.00
2022-08-23T08:14:27.559Z,11240.00
2022-08-23T08:15:27.558Z,11200.00
2022-08-23T08:16:27.575Z,11280.00
2022-08-23T08:17:27.825Z,11268.00
2022-08-23T08:18:27.555Z,11176.00
2022-08-23T08:19:27.555Z,11160.00
2022-08-23T08:20:27.559Z,10936.00
2022-08-23T08:21:27.555Z,9512.00
2022-08-23T08:22:27.553Z,10524.00
2022-08-23T08:23:27.552Z,10580.00
2022-08-23T08:24:27.558Z,10508.00
2022-08-23T08:25:27.553Z,10416.00
2022-08-23T08:26:27.554Z,10256.00
2022-08-23T08:27:27.550Z,10052.00
2022-08-23T08:28:27.550Z,10056.00
2022-08-23T08:29:27.553Z,9900.00
2022-08-23T08:30:27.551Z,9704.00
2022-08-23T08:31:27.681Z,9592.00
2022-08-23T08:32:27.549Z,9248.00
2022-08-23T08:33:30.796Z,9448.00
2022-08-23T08:34:27.544Z,9676.00
2022-08-23T08:35:27.542Z,9788.00
2022-08-23T08:36:27.550Z,10072.00
2022-08-23T08:37:27.571Z,10292.00
2022-08-23T08:38:28.875Z,10668.00
2022-08-23T08:39:27.547Z,10984.00
2022-08-23T08:40:27.549Z,11320.00
2022-08-23T08:41:27.546Z,11460.00
2022-08-23T08:42:27.542Z,11160.00
2022-08-23T08:43:27.550Z,11488.00
2022-08-23T08:44:27.543Z,11520.00
2022-08-23T08:45:27.542Z,11300.00
2022-08-23T08:46:27.567Z,11068.00
2022-08-23T08:47:27.775Z,10904.00
2022-08-23T08:48:27.539Z,10840.00
2022-08-23T08:49:27.544Z,10812.00
2022-08-23T08:50:27.543Z,10696.00
2022-08-23T08:51:27.538Z,10528.00
2022-08-23T08:52:29.735Z,10340.00
2022-08-23T08:53:27.541Z,10224.00
2022-08-23T08:54:27.540Z,10300.00
2022-08-23T08:55:27.538Z,10296.00
2022-08-23T08:56:29.787Z,10396.00
2022-08-23T08:57:27.921Z,10412.00
2022-08-23T08:58:27.535Z,10380.00
2022-08-23T08:59:27.536Z,10200.00
2022-08-23T09:00:27.538Z,9940.00
2022-08-23T09:01:27.563Z,9860.00
2022-08-23T09:02:32.593Z,9836.00
2022-08-23T09:03:27.578Z,9600.00
2022-08-23T09:04:27.536Z,9580.00
2022-08-23T09:05:27.540Z,8356.00
2022-08-23T09:06:27.539Z,9008.00
2022-08-23T09:07:31.068Z,8876.00
2022-08-23T09:08:27.590Z,8472.00
2022-08-23T09:09:27.536Z,7980.00
2022-08-23T09:10:27.540Z,7764.00
2022-08-23T09:11:27.535Z,8056.00
2022-08-23T09:12:27.536Z,8192.00
2022-08-23T09:13:27.535Z,7652.00
2022-08-23T09:14:27.534Z,7664.00
2022-08-23T09:15:27.536Z,8348.00
2022-08-23T09:16:28.784Z,8452.00
2022-08-23T09:17:27.538Z,7864.00
2022-08-23T09:18:27.534Z,8608.00
2022-08-23T09:19:27.533Z,8556.00
2022-08-23T09:20:31.046Z,8612.00
2022-08-23T09:21:28.433Z,8736.00
2022-08-23T09:22:27.532Z,8636.00
2022-08-23T09:23:27.532Z,8824.00
2022-08-23T09:24:27.532Z,8056.00
2022-08-23T09:25:27.534Z,7324.00
2022-08-23T09:26:27.542Z,6880.00
2022-08-23T09:27:27.532Z,6792.00
2022-08-23T09:28:27.533Z,6436.00
2022-08-23T09:29:27.534Z,6612.00
2022-08-23T09:30:27.531Z,6932.00
2022-08-23T09:31:27.608Z,7228.00
2022-08-23T09:32:27.531Z,7332.00
2022-08-23T09:33:27.531Z,7212.00
2022-08-23T09:34:27.530Z,6972.00
2022-08-23T09:35:27.532Z,6864.00
2022-08-23T09:36:27.531Z,7012.00
2022-08-23T09:37:27.532Z,7028.00
2022-08-23T09:38:27.526Z,6140.00
2022-08-23T09:39:30.882Z,6664.00
2022-08-23T09:40:27.531Z,7944.00
2022-08-23T09:41:27.542Z,8344.00
2022-08-23T09:42:27.530Z,8244.00
2022-08-23T09:43:27.528Z,8924.00
2022-08-23T09:44:27.532Z,8928.00
2022-08-23T09:45:28.889Z,8608.00
2022-08-23T09:46:27.597Z,8076.00
2022-08-23T09:47:27.529Z,7820.00
2022-08-23T09:48:31.094Z,7536.00
2022-08-23T09:49:27.528Z,7484.00
2022-08-23T09:50:27.526Z,7332.00
2022-08-23T09:51:27.523Z,7228.00
2022-08-23T09:52:27.525Z,7160.00
2022-08-23T09:53:27.529Z,6952.00
2022-08-23T09:54:27.526Z,6720.00
2022-08-23T09:55:27.526Z,6512.00
2022-08-23T09:56:27.523Z,6352.00
2022-08-23T09:57:27.824Z,6216.00
2022-08-23T09:58:27.527Z,6248.00
2022-08-23T09:59:27.629Z,6152.00
2022-08-23T10:00:27.536Z,6156.00
2022-08-23T10:01:27.571Z,6208.00
2022-08-23T10:02:27.585Z,6048.00
2022-08-23T10:03:27.536Z,5736.00
2022-08-23T10:04:27.721Z,5428.00
2022-08-23T10:05:27.541Z,5324.00
2022-08-23T10:06:27.524Z,5240.00
2022-08-23T10:07:27.529Z,5260.00
2022-08-23T10:08:27.528Z,5444.00
2022-08-23T10:09:27.527Z,5768.00
2022-08-23T10:10:27.520Z,6104.00
2022-08-23T10:11:27.524Z,6348.00
2022-08-23T10:12:27.524Z,6364.00
2022-08-23T10:13:27.525Z,6336.00
2022-08-23T10:14:30.063Z,6628.00
2022-08-23T10:15:27.525Z,7048.00
2022-08-23T10:16:27.556Z,7428.00
2022-08-23T10:17:27.524Z,7736.00
2022-08-23T10:18:27.539Z,7976.00
2022-08-23T10:19:27.524Z,8016.00
2022-08-23T10:20:27.537Z,8508.00
2022-08-23T10:21:27.521Z,9016.00
2022-08-23T10:22:27.522Z,9104.00
2022-08-23T10:23:27.525Z,9104.00
2022-08-23T10:24:27.527Z,9148.00
2022-08-23T10:25:27.525Z,9204.00
2022-08-23T10:26:27.526Z,9268.00
2022-08-23T10:27:27.527Z,9328.00
2022-08-23T10:28:27.526Z,9232.00
2022-08-23T10:29:27.524Z,8556.00
2022-08-23T10:30:27.524Z,7904.00
2022-08-23T10:31:27.561Z,8288.00
2022-08-23T10:32:27.526Z,9384.00
2022-08-23T10:33:27.528Z,9472.00
2022-08-23T10:34:29.910Z,9348.00
2022-08-23T10:35:27.525Z,9628.00
2022-08-23T10:36:27.526Z,9648.00
2022-08-23T10:37:27.526Z,9612.00
2022-08-23T10:38:27.526Z,9620.00
2022-08-23T10:39:27.527Z,9696.00
2022-08-23T10:40:27.565Z,9528.00
2022-08-23T10:41:27.527Z,9252.00
2022-08-23T10:42:27.528Z,9096.00
2022-08-23T10:43:27.527Z,9120.00
2022-08-23T10:44:27.543Z,9024.00
2022-08-23T10:45:27.527Z,8920.00
2022-08-23T10:46:27.560Z,8844.00
2022-08-23T10:47:27.551Z,8776.00
2022-08-23T10:48:27.530Z,8680.00
2022-08-23T10:49:27.533Z,8640.00
2022-08-23T10:50:27.531Z,8704.00
2022-08-23T10:51:32.037Z,8840.00
2022-08-23T10:52:27.533Z,8896.00
2022-08-23T10:53:27.532Z,8928.00
2022-08-23T10:54:27.533Z,8876.00
2022-08-23T10:55:27.531Z,8808.00
2022-08-23T10:56:27.534Z,8728.00
2022-08-23T10:57:27.531Z,8632.00
2022-08-23T10:58:27.537Z,8568.00
2022-08-23T10:59:27.536Z,8592.00
2022-08-23T11:00:27.533Z,8612.00
2022-08-23T11:01:27.582Z,8668.00
2022-08-23T11:02:27.572Z,8684.00
2022-08-23T11:03:29.021Z,8600.00
2022-08-23T11:04:27.536Z,8572.00
2022-08-23T11:05:27.537Z,8120.00
2022-08-23T11:06:27.537Z,8068.00
2022-08-23T11:07:27.536Z,8104.00
2022-08-23T11:08:27.541Z,7804.00
2022-08-23T11:09:27.538Z,7516.00
2022-08-23T11:10:27.538Z,7228.00
2022-08-23T11:11:27.539Z,6892.00
2022-08-23T11:12:27.541Z,6580.00
2022-08-23T11:13:27.542Z,6408.00
2022-08-23T11:14:27.540Z,6344.00
2022-08-23T11:15:27.587Z,6232.00
2022-08-23T11:16:27.543Z,5740.00
2022-08-23T11:17:27.545Z,5636.00
2022-08-23T11:18:31.302Z,5996.00
2022-08-23T11:19:27.544Z,5972.00
2022-08-23T11:20:27.547Z,5532.00
2022-08-23T11:21:27.545Z,5808.00
2022-08-23T11:22:27.543Z,5840.00
2022-08-23T11:23:27.546Z,5428.00
2022-08-23T11:24:27.548Z,5592.00
2022-08-23T11:25:27.547Z,6096.00
2022-08-23T11:26:27.549Z,6796.00
2022-08-23T11:27:27.548Z,7988.00
2022-08-23T11:28:30.420Z,9160.00
2022-08-23T11:29:27.548Z,7844.00
2022-08-23T11:30:27.553Z,7256.00
2022-08-23T11:31:27.567Z,6108.00
2022-08-23T11:32:29.965Z,5580.00
2022-08-23T11:33:27.553Z,5072.00
2022-08-23T11:34:29.478Z,5532.00
2022-08-23T11:35:27.550Z,5436.00
2022-08-23T11:36:27.555Z,5748.00
2022-08-23T11:37:27.554Z,5900.00
2022-08-23T11:38:27.556Z,5632.00
2022-08-23T11:39:27.552Z,6232.00
2022-08-23T11:40:28.514Z,6500.00
2022-08-23T11:41:27.556Z,5792.00
2022-08-23T11:42:27.556Z,4796.00
2022-08-23T11:43:27.557Z,5124.00
2022-08-23T11:44:27.561Z,5004.00
2022-08-23T11:45:27.559Z,5408.00
2022-08-23T11:46:27.618Z,5460.00
2022-08-23T11:47:27.558Z,5096.00
2022-08-23T11:48:27.561Z,4936.00
2022-08-23T11:49:27.559Z,4464.00
2022-08-23T11:50:27.602Z,4296.00
2022-08-23T11:51:27.559Z,4372.00
2022-08-23T11:52:27.563Z,4328.00
2022-08-23T11:53:27.565Z,5444.00
2022-08-23T11:54:27.588Z,6832.00
2022-08-23T11:55:27.566Z,5620.00
2022-08-23T11:56:27.570Z,5048.00
2022-08-23T11:57:28.188Z,5580.00
2022-08-23T11:58:27.567Z,5264.00
2022-08-23T11:59:27.569Z,4636.00
2022-08-23T12:00:28.959Z,4444.00
2022-08-23T12:01:27.573Z,4444.00
2022-08-23T12:02:27.644Z,4252.00
2022-08-23T12:03:27.682Z,4140.00
2022-08-23T12:04:27.571Z,4836.00
2022-08-23T12:05:27.586Z,5120.00
2022-08-23T12:06:27.571Z,5304.00
2022-08-23T12:07:27.572Z,5264.00
2022-08-23T12:08:27.572Z,5404.00
2022-08-23T12:09:27.575Z,5532.00
2022-08-23T12:10:27.575Z,5340.00
2022-08-23T12:11:27.575Z,5292.00
2022-08-23T12:12:27.578Z,5508.00
2022-08-23T12:13:27.579Z,5920.00
2022-08-23T12:14:27.578Z,6224.00
2022-08-23T12:15:27.605Z,5492.00
2022-08-23T12:16:28.883Z,5284.00
2022-08-23T12:17:28.710Z,5268.00
2022-08-23T12:18:27.582Z,5820.00
2022-08-23T12:19:27.582Z,6100.00
2022-08-23T12:20:27.579Z,6532.00
2022-08-23T12:21:27.588Z,7040.00
2022-08-23T12:22:28.694Z,7664.00
2022-08-23T12:23:27.585Z,7524.00
2022-08-23T12:24:27.587Z,6400.00
2022-08-23T12:25:27.586Z,5424.00
2022-08-23T12:26:28.523Z,5136.00
2022-08-23T12:27:27.591Z,5016.00
2022-08-23T12:28:27.590Z,4228.00
2022-08-23T12:29:27.593Z,3300.00
2022-08-23T12:30:27.590Z,2696.00
2022-08-23T12:31:27.648Z,2620.00
2022-08-23T12:32:30.381Z,2628.00
2022-08-23T12:33:27.598Z,2784.00
2022-08-23T12:34:27.596Z,3016.00
2022-08-23T12:35:27.600Z,3360.00